Flight Track Log - Related Links

Times and Time Zones

All times are in EDT time to prevent confusion due to time zone crossing. See the SWA2354 flight status page for this flight to view local times or setup timezone preferences in your user account.

Time Position Orientation Groundspeed Altitude Reporting Facility
EDT Latitude Longitude Course Direction KTS MPH feet Rate Location/Type
Fri 09:34:21 PM 29.6333 -95.2653 61° Northeast 152 175 600  Level Houston Center
Fri 09:35:10 PM 29.6492 -95.2322 61° Northeast 216 249 1,900 2,073 Climbing Houston Center
Fri 09:36:11 PM 29.7119 -95.2533 344° North 239 275 4,400 2,208 Climbing Houston Center
Fri 09:37:15 PM 29.7817 -95.2903 335° Northwest 267 307 6,500 2,208 Climbing Houston Center
Fri 09:38:16 PM 29.8558 -95.3294 335° Northwest 289 333 9,000 2,634 Climbing Houston Center
Fri 09:39:18 PM 29.9339 -95.2833 27° Northeast 323 372 11,900 3,024 Climbing Houston Center
Fri 09:40:19 PM 30.0214 -95.2286 28° Northeast 347 399 15,200 2,902 Climbing Houston Center
Fri 09:41:20 PM 30.1108 -95.1736 28° Northeast 360 414 17,800 2,557 Climbing Houston Center
Fri 09:42:21 PM 30.2061 -95.1133 29° Northeast 383 441 20,400 2,508 Climbing Houston Center
Fri 09:43:22 PM 30.3031 -95.0519 29° Northeast 394 453 22,900 2,213 Climbing Houston Center
Fri 09:44:23 PM 30.4042 -94.9869 29° Northeast 410 472 24,900 2,000 Climbing Houston Center
Fri 09:45:25 PM 30.5281 -94.9072 29° Northeast 428 493 27,000 1,805 Climbing Houston Center
Fri 09:46:26 PM 30.6333 -94.8300 32° Northeast 443 510 28,600 1,525 Climbing Houston Center
Fri 09:47:27 PM 30.7417 -94.7472 33° Northeast 463 533 30,100 1,770 Climbing Houston Center
Fri 09:48:28 PM 30.8497 -94.6631 34° Northeast 470 541 32,200 2,066 Climbing Houston Center
Fri 09:49:29 PM 30.9542 -94.5822 34° Northeast 450 518 34,300 1,672 Climbing Houston Center
Fri 09:50:30 PM 31.0578 -94.5017 34° Northeast 452 520 35,600 1,415 Climbing Houston Center
Fri 09:51:32 PM 31.1831 -94.4036 34° Northeast 458 527 37,200 1,415 Climbing Houston Center
Fri 09:52:33 PM 31.2881 -94.3222 34° Northeast 458 527 38,500 885 Climbing Houston Center
Fri 09:53:34 PM 31.3928 -94.2411 33° Northeast 456 525 39,000 246 Climbing Houston Center
Fri 09:54:35 PM 31.4969 -94.1600 34° Northeast 452 520 39,000  Level Houston Center
Fri 09:55:36 PM 31.6003 -94.0792 34° Northeast 448 516 39,000  Level Houston Center
Fri 09:56:37 PM 31.6972 -93.9892 38° Northeast 446 513 39,000  Level Houston Center
Fri 09:57:38 PM 31.7758 -93.8742 51° Northeast 452 520 39,000  Level Houston Center
Fri 09:58:40 PM 31.8567 -93.7544 51° Northeast 448 516 39,000  Level Houston Center
Fri 09:59:41 PM 31.9336 -93.6375 52° Northeast 451 519 39,000  Level Houston Center
Fri 10:00:42 PM 32.0108 -93.5206 52° Northeast 451 519 39,000  Level Houston Center
Fri 10:01:43 PM 32.0883 -93.4039 52° Northeast 451 519 39,000  Level Houston Center
Fri 10:02:44 PM 32.1664 -93.2853 52° Northeast 456 525 39,000  Level Houston Center
Fri 10:04:07 PM 32.2778 -93.1136 52° Northeast 466 536 39,000  Level Fort Worth Center
Fri 10:05:07 PM 32.3572 -92.9967 51° Northeast 460 529 39,000  Level Fort Worth Center
Fri 10:06:07 PM 32.4361 -92.8697 54° Northeast 456 525 39,000  Level Fort Worth Center
Fri 10:07:07 PM 32.5172 -92.7475 52° Northeast 466 536 39,000  Level Fort Worth Center
Fri 10:08:07 PM 32.5900 -92.6303 54° Northeast 466 536 39,000  Level Fort Worth Center
Fri 10:09:07 PM 32.6731 -92.5075 51° Northeast 461 531 39,000  Level Fort Worth Center
Fri 10:10:06 PM 32.7497 -92.3872 53° Northeast 461 531 39,000  Level Fort Worth Center
Fri 10:12:19 PM 32.9206 -92.1219 52° Northeast 459 528 39,000  Level Memphis Center
Fri 10:13:19 PM 33.0017 -91.9897 54° Northeast 451 519 39,000  Level Memphis Center
Fri 10:14:19 PM 33.0761 -91.8694 54° Northeast 446 513 39,000  Level Memphis Center
Fri 10:15:19 PM 33.1506 -91.7517 53° Northeast 446 513 39,000  Level Memphis Center
Fri 10:16:19 PM 33.2292 -91.6314 52° Northeast 446 513 39,000  Level Memphis Center
Fri 10:17:19 PM 33.3011 -91.5156 53° Northeast 446 513 39,000  Level Memphis Center
Fri 10:18:19 PM 33.3775 -91.3947 53° Northeast 446 513 39,000  Level Memphis Center
Fri 10:19:19 PM 33.4494 -91.2758 54° Northeast 446 513 39,000  Level Memphis Center
Fri 10:20:19 PM 33.5272 -91.1572 52° Northeast 446 513 39,000  Level Memphis Center
Fri 10:21:19 PM 33.6011 -91.0381 53° Northeast 446 513 39,000  Level Memphis Center
Fri 10:22:19 PM 33.6769 -90.9164 53° Northeast 446 513 39,000  Level Memphis Center
Fri 10:23:19 PM 33.7503 -90.7969 54° Northeast 451 519 39,000  Level Memphis Center
Fri 10:24:19 PM 33.8239 -90.6772 53° Northeast 451 519 39,000  Level Memphis Center
Fri 10:25:19 PM 33.8950 -90.5575 54° Northeast 444 511 39,000  Level Memphis Center
Fri 10:26:19 PM 33.9619 -90.4472 54° Northeast 444 511 39,000  Level Memphis Center
Fri 10:27:19 PM 34.0350 -90.3269 54° Northeast 444 511 39,000  Level Memphis Center
Fri 10:28:19 PM 34.1078 -90.2042 54° Northeast 444 511 39,000  Level Memphis Center
Fri 10:29:19 PM 34.1828 -90.0808 54° Northeast 444 511 39,000  Level Memphis Center
Fri 10:30:19 PM 34.2556 -89.9575 54° Northeast 444 511 39,000  Level Memphis Center
Fri 10:31:19 PM 34.3281 -89.8364 54° Northeast 444 511 39,000  Level Memphis Center
Fri 10:32:19 PM 34.4006 -89.7128 55° Northeast 449 517 39,000  Level Memphis Center
Fri 10:33:19 PM 34.4728 -89.5889 55° Northeast 449 517 39,000  Level Memphis Center
Fri 10:34:19 PM 34.5450 -89.4694 54° Northeast 449 517 39,000  Level Memphis Center
Fri 10:35:19 PM 34.6172 -89.3453 55° Northeast 444 511 39,000  Level Memphis Center
Fri 10:36:19 PM 34.6911 -89.2206 54° Northeast 450 518 39,000  Level Memphis Center
Fri 10:37:19 PM 34.7650 -89.0956 54° Northeast 455 524 39,000  Level Memphis Center
Fri 10:38:19 PM 34.8450 -88.9628 54° Northeast 450 518 39,000  Level Memphis Center
Fri 10:39:19 PM 34.9186 -88.8375 54° Northeast 450 518 39,000  Level Memphis Center
Fri 10:40:19 PM 34.9922 -88.7144 54° Northeast 450 518 39,000  Level Memphis Center
Fri 10:41:19 PM 35.0614 -88.5914 55° Northeast 450 518 39,000  Level Memphis Center
Fri 10:42:19 PM 35.1183 -88.4936 55° Northeast 450 518 39,000  Level Memphis Center
Fri 10:43:19 PM 35.1978 -88.3675 52° Northeast 443 510 39,000  Level Memphis Center
Fri 10:44:19 PM 35.2644 -88.2386 58° Northeast 438 504 39,000  Level Memphis Center
Fri 10:45:19 PM 35.3164 -88.1050 64° Northeast 433 498 39,000  Level Memphis Center
Fri 10:46:19 PM 35.3681 -87.9714 65° Northeast 433 498 39,000  Level Memphis Center
Fri 10:47:19 PM 35.4172 -87.8194 68° East 426 490 39,000  Level Memphis Center
Fri 10:48:19 PM 35.4708 -87.6878 63° Northeast 420 483 39,000  Level Memphis Center
Fri 10:49:19 PM 35.5222 -87.5561 64° Northeast 425 489 39,000  Level Memphis Center
Fri 10:50:19 PM 35.5756 -87.4267 63° Northeast 425 489 39,000  Level Memphis Center
Fri 10:51:19 PM 35.6264 -87.2947 65° Northeast 430 495 39,000  Level Memphis Center
Fri 10:52:19 PM 35.6694 -87.1781 66° East 420 483 39,000  Level Memphis Center
Fri 10:53:19 PM 35.7203 -87.0483 64° Northeast 420 483 39,000  Level Memphis Center
Fri 10:54:19 PM 35.7669 -86.9211 66° East 409 471 39,000  Level Memphis Center
Fri 10:55:19 PM 35.8175 -86.7908 64° Northeast 409 471 39,000  Level Memphis Center
Fri 10:56:19 PM 35.8678 -86.6633 64° Northeast 409 471 39,000  Level Memphis Center
Fri 10:57:19 PM 35.9139 -86.5331 66° East 409 471 39,000  Level Memphis Center
Fri 10:58:19 PM 35.9642 -86.4075 64° Northeast 404 465 39,000  Level Memphis Center
Fri 10:59:19 PM 36.0103 -86.2797 66° East 404 465 39,000  Level Memphis Center
Fri 11:00:19 PM 36.0581 -86.1539 65° Northeast 404 465 39,000  Level Memphis Center
Fri 11:01:19 PM 36.1039 -86.0336 65° Northeast 391 450 39,000  Level Memphis Center
Fri 11:02:19 PM 36.1497 -85.9103 65° Northeast 391 450 39,000  Level Memphis Center
Fri 11:03:26 PM 36.1978 -85.7797 65° Northeast 396 456 39,000  Level Indianapolis Center
Fri 11:05:28 PM 36.2983 -85.5042 66° East 397 457 39,000  Level Indianapolis Center
Fri 11:06:29 PM 36.3439 -85.3811 65° Northeast 394 453 39,000  Level Indianapolis Center
Fri 11:07:30 PM 36.3889 -85.2553 66° East 396 456 39,000  Level Indianapolis Center
Fri 11:08:31 PM 36.4344 -85.1289 66° East 397 457 39,000  Level Indianapolis Center
Fri 11:09:32 PM 36.4789 -85.0017 66° East 400 460 39,000  Level Indianapolis Center
Fri 11:10:34 PM 36.5247 -84.8744 66° East 401 461 39,000  Level Indianapolis Center
Fri 11:11:35 PM 36.5692 -84.7464 67° East 401 461 39,000  Level Indianapolis Center
Fri 11:12:36 PM 36.6150 -84.6189 66° East 403 464 39,000  Level Indianapolis Center
Fri 11:13:37 PM 36.6597 -84.4925 66° East 404 465 39,000  Level Indianapolis Center
Fri 11:14:38 PM 36.7050 -84.3631 66° East 408 470 39,000  Level Indianapolis Center
Fri 11:15:39 PM 36.7481 -84.2297 68° East 414 476 39,000  Level Indianapolis Center
Fri 11:16:40 PM 36.7931 -84.0978 67° East 412 474 39,000  Level Indianapolis Center
Fri 11:17:41 PM 36.8439 -83.9425 68° East 413 475 39,000  Level Indianapolis Center
Fri 11:18:42 PM 36.8886 -83.8094 67° East 413 475 39,000  Level Indianapolis Center
Fri 11:19:43 PM 36.9306 -83.6758 69° East 415 478 39,000  Level Indianapolis Center
Fri 11:20:44 PM 36.9756 -83.5419 67° East 415 478 39,000  Level Indianapolis Center
Fri 11:21:45 PM 37.0194 -83.4058 68° East 421 484 39,000  Level Indianapolis Center
Fri 11:22:46 PM 37.0644 -83.2692 68° East 420 483 39,000  Level Indianapolis Center
Fri 11:23:47 PM 37.1094 -83.1311 68° East 424 488 39,000  Level Indianapolis Center
Fri 11:24:48 PM 37.1542 -82.9894 68° East 430 495 39,000  Level Indianapolis Center
Fri 11:25:49 PM 37.2000 -82.8472 68° East 436 502 39,000  Level Indianapolis Center
Fri 11:26:50 PM 37.2442 -82.7053 69° East 436 502 39,000  Level Indianapolis Center
Fri 11:27:51 PM 37.2878 -82.5642 69° East 433 498 39,000  Level Indianapolis Center
Fri 11:28:52 PM 37.3328 -82.4228 68° East 437 503 39,000  Level Indianapolis Center
Fri 11:29:53 PM 37.3772 -82.2806 68° East 437 503 39,000  Level Indianapolis Center
Fri 11:30:54 PM 37.4211 -82.1389 69° East 435 501 39,000  Level Indianapolis Center
Fri 11:31:55 PM 37.4653 -81.9975 68° East 434 499 39,000  Level Indianapolis Center
Fri 11:32:56 PM 37.5150 -81.8303 69° East 435 501 39,000  Level Indianapolis Center
Fri 11:33:57 PM 37.5586 -81.6886 69° East 435 501 39,000  Level Indianapolis Center
Fri 11:34:58 PM 37.6014 -81.5453 69° East 436 502 39,000  Level Indianapolis Center
Fri 11:35:59 PM 37.6456 -81.4014 69° East 436 502 39,000  Level Indianapolis Center
Fri 11:36:59 PM 37.6869 -81.2611 70° East 439 505 39,000  Level Indianapolis Center
Fri 11:38:00 PM 37.7294 -81.1214 69° East 440 506 39,000  Level Indianapolis Center
Fri 11:39:01 PM 37.7706 -80.9792 70° East 442 509 39,000  Level Indianapolis Center
Fri 11:40:02 PM 37.8150 -80.8267 70° East 442 509 39,000  Level Indianapolis Center
Fri 11:41:03 PM 37.8583 -80.6811 69° East 443 510 39,000  Level Indianapolis Center
Fri 11:42:04 PM 37.9000 -80.5372 70° East 439 505 39,000  Level Indianapolis Center
Fri 11:43:04 PM 37.9439 -80.3847 70° East 438 504 39,000  Level Indianapolis Center
Fri 11:44:05 PM 37.9847 -80.2450 70° East 436 502 39,000  Level Indianapolis Center
Fri 11:45:06 PM 38.0247 -80.1069 70° East 430 495 39,000  Level Indianapolis Center
Fri 11:46:07 PM 38.0722 -79.9406 70° East 429 494 39,000  Level Indianapolis Center
Fri 11:47:08 PM 38.1111 -79.8050 70° East 423 487 39,000  Level Indianapolis Center
Fri 11:48:08 PM 38.1489 -79.6706 70° East 415 478 39,000  Level Indianapolis Center
Fri 11:49:09 PM 38.1869 -79.5350 70° East 416 479 39,000 -98 Level Indianapolis Center
Fri 11:50:10 PM 38.2239 -79.4022 70° East 410 472 38,800 -647 Descending Indianapolis Center
Fri 11:51:28 PM 38.2814 -79.2131 69° East 410 472 37,500 -957 Descending Washington Center
Fri 11:52:28 PM 38.3183 -79.0850 70° East 410 472 36,600 -885 Descending Washington Center
Fri 11:53:30 PM 38.3558 -78.9492 71° East 410 472 35,700 -950 Descending Washington Center
Fri 11:54:28 PM 38.3908 -78.8075 72° East 410 472 34,700 -972 Descending Washington Center
Fri 11:55:52 PM 38.4439 -78.6083 71° East 420 483 33,400 -1,667 Descending Washington Center
Fri 11:56:52 PM 38.4831 -78.4589 71° East 425 489 30,700 -2,950 Descending Washington Center
Fri 11:57:52 PM 38.5242 -78.3117 70° East 435 501 27,500 -3,000 Descending Washington Center
Fri 11:58:54 PM 38.5628 -78.1619 72° East 435 501 24,600 -2,780 Descending Washington Center
Fri 11:59:55 PM 38.6014 -78.0172 71° East 435 501 21,800 -2,723 Descending Washington Center
Sat 12:00:53 AM 38.6372 -77.8775 72° East 425 489 19,200 -1,436 Descending Washington Center
Sat 12:01:52 AM 38.6483 -77.7342 84° East 412 474 19,000 -104 Descending Washington Center
Sat 12:02:48 AM 38.6667 -77.5833 81° East 406 467 19,000 -1,023 Level Potomac TRACON
Sat 12:04:48 AM 38.6833 -77.3000 86° East 388 447 16,000 -1,419 Descending Potomac TRACON
Sat 12:05:54 AM 38.6833 -77.1667 90° East 370 426 14,600 -1,810 Descending Potomac TRACON
Sat 12:06:54 AM 38.6833 -77.0333 90° East 366 421 12,200 -2,158 Descending Potomac TRACON
Sat 12:07:48 AM 38.7000 -76.9167 80° East 353 406 10,500 -1,278 Descending Potomac TRACON
Sat 12:08:42 AM 38.7167 -76.8167 78° East 315 362 9,900 -1,263 Descending Potomac TRACON
Sat 12:09:42 AM 38.8000 -76.8000 North 282 325 8,100 -1,762 Descending Potomac TRACON
Sat 12:10:48 AM 38.8833 -76.8000 360° North 267 307 6,200 -1,524 Descending Potomac TRACON
Sat 12:11:48 AM 38.9500 -76.7833 11° North 251 289 4,900 -1,526 Descending Potomac TRACON
Sat 12:12:42 AM 39.0167 -76.7833 360° North 264 304 3,300 -1,333 Descending Potomac TRACON
Sat 12:13:36 AM 39.0667 -76.7833 360° North 260 299 2,500 -632 Descending Potomac TRACON
Sat 12:14:36 AM 39.1333 -76.7833 360° North 223 257 2,100 -650 Descending Potomac TRACON
Sat 12:15:36 AM 39.1833 -76.7500 27° Northeast 161 185 1,200 -895 Descending Potomac TRACON
Sat 12:16:30 AM 39.1833 -76.7000 90° East 134 154 400 -889 Descending Potomac TRACON
Sat 12:18:00 AM 39.1754 -76.6683 108° East  Level Estimated
Sat 12:25:00 AM 39.1754 -76.6683 293° West  Level Estimated
Sat 12:26:00 AM 39.1754 -76.6683 293° West  Level Estimated

Login

Don't have an account? Register now (free) for customized features, flight alerts, and more!